sensor_id;sensor_type;location;lat;lon;timestamp;pressure;altitude;pressure_sealevel;temperature;humidity
25084;BME280;13075;55.682;37.564;2023-02-26T00:00:17;97163.63;;;5.90;100.00
25084;BME280;13075;55.682;37.564;2023-02-26T00:02:46;97153.47;;;5.57;100.00
25084;BME280;13075;55.682;37.564;2023-02-26T00:05:14;97145.63;;;6.39;100.00
25084;BME280;13075;55.682;37.564;2023-02-26T00:07:41;97131.44;;;6.45;100.00
25084;BME280;13075;55.682;37.564;2023-02-26T00:10:08;97135.59;;;6.06;100.00
25084;BME280;13075;55.682;37.564;2023-02-26T00:12:35;97125.53;;;6.43;100.00
25084;BME280;13075;55.682;37.564;2023-02-26T00:15:01;97113.50;;;6.63;100.00
25084;BME280;13075;55.682;37.564;2023-02-26T00:17:42;97116.06;;;6.35;100.00
25084;BME280;13075;55.682;37.564;2023-02-26T00:20:10;97100.41;;;6.34;100.00
25084;BME280;13075;55.682;37.564;2023-02-26T00:22:38;97098.09;;;6.02;100.00
25084;BME280;13075;55.682;37.564;2023-02-26T00:25:04;97093.63;;;5.38;100.00
25084;BME280;13075;55.682;37.564;2023-02-26T00:27:29;97095.97;;;5.81;100.00
25084;BME280;13075;55.682;37.564;2023-02-26T00:29:55;97082.75;;;5.93;100.00
25084;BME280;13075;55.682;37.564;2023-02-26T00:32:21;97076.50;;;5.99;100.00
25084;BME280;13075;55.682;37.564;2023-02-26T00:34:47;97069.38;;;6.11;100.00
25084;BME280;13075;55.682;37.564;2023-02-26T00:42:17;97027.28;;;6.03;100.00
25084;BME280;13075;55.682;37.564;2023-02-26T00:44:43;97013.78;;;6.44;100.00
25084;BME280;13075;55.682;37.564;2023-02-26T00:47:17;97013.16;;;6.25;100.00
25084;BME280;13075;55.682;37.564;2023-02-26T00:55:04;97019.59;;;6.69;100.00
25084;BME280;13075;55.682;37.564;2023-02-26T00:57:29;97036.06;;;6.55;100.00
25084;BME280;13075;55.682;37.564;2023-02-26T00:59:55;97034.66;;;6.01;100.00
25084;BME280;13075;55.682;37.564;2023-02-26T01:02:21;97037.19;;;6.19;100.00
25084;BME280;13075;55.682;37.564;2023-02-26T01:04:46;97036.81;;;6.15;100.00
25084;BME280;13075;55.682;37.564;2023-02-26T01:07:13;97040.97;;;5.65;100.00
25084;BME280;13075;55.682;37.564;2023-02-26T01:09:39;97034.97;;;5.70;100.00
25084;BME280;13075;55.682;37.564;2023-02-26T01:12:07;97017.00;;;6.06;100.00
25084;BME280;13075;55.682;37.564;2023-02-26T01:14:34;97016.31;;;5.88;100.00
25084;BME280;13075;55.682;37.564;2023-02-26T01:24:41;96996.91;;;5.76;100.00
25084;BME280;13075;55.682;37.564;2023-02-26T01:27:08;97015.47;;;5.52;100.00
25084;BME280;13075;55.682;37.564;2023-02-26T01:29:33;97000.63;;;5.86;100.00
25084;BME280;13075;55.682;37.564;2023-02-26T01:32:07;96982.91;;;6.26;100.00
25084;BME280;13075;55.682;37.564;2023-02-26T01:34:34;96991.59;;;5.76;100.00
25084;BME280;13075;55.682;37.564;2023-02-26T01:37:09;96991.00;;;6.20;100.00
25084;BME280;13075;55.682;37.564;2023-02-26T01:39:46;96973.84;;;5.99;100.00
25084;BME280;13075;55.682;37.564;2023-02-26T01:42:39;96975.44;;;6.12;100.00
25084;BME280;13075;55.682;37.564;2023-02-26T01:45:16;96977.22;;;5.72;100.00
25084;BME280;13075;55.682;37.564;2023-02-26T01:48:02;96969.84;;;5.50;100.00
25084;BME280;13075;55.682;37.564;2023-02-26T01:50:28;96969.94;;;5.79;100.00
25084;BME280;13075;55.682;37.564;2023-02-26T01:53:20;96963.72;;;5.50;100.00
25084;BME280;13075;55.682;37.564;2023-02-26T01:55:50;96946.84;;;6.02;100.00
25084;BME280;13075;55.682;37.564;2023-02-26T01:58:18;96950.66;;;6.06;100.00
25084;BME280;13075;55.682;37.564;2023-02-26T02:00:45;96939.66;;;6.14;100.00
25084;BME280;13075;55.682;37.564;2023-02-26T02:03:11;96931.03;;;6.36;100.00
25084;BME280;13075;55.682;37.564;2023-02-26T02:05:44;96940.84;;;6.35;100.00
25084;BME280;13075;55.682;37.564;2023-02-26T02:08:12;96931.19;;;6.29;100.00
25084;BME280;13075;55.682;37.564;2023-02-26T02:10:41;96938.16;;;6.18;100.00
25084;BME280;13075;55.682;37.564;2023-02-26T02:26:52;96931.31;;;6.22;100.00
25084;BME280;13075;55.682;37.564;2023-02-26T02:32:27;96939.25;;;5.71;100.00
25084;BME280;13075;55.682;37.564;2023-02-26T02:35:03;96931.56;;;5.70;100.00
25084;BME280;13075;55.682;37.564;2023-02-26T02:37:40;96921.78;;;6.10;100.00
25084;BME280;13075;55.682;37.564;2023-02-26T02:40:16;96932.13;;;5.37;100.00
25084;BME280;13075;55.682;37.564;2023-02-26T02:42:48;96917.22;;;5.94;100.00
25084;BME280;13075;55.682;37.564;2023-02-26T02:45:35;96899.06;;;6.14;100.00
25084;BME280;13075;55.682;37.564;2023-02-26T02:48:08;96902.91;;;6.06;100.00
25084;BME280;13075;55.682;37.564;2023-02-26T02:50:59;96902.56;;;6.03;100.00
25084;BME280;13075;55.682;37.564;2023-02-26T02:53:32;96898.25;;;6.42;100.00
25084;BME280;13075;55.682;37.564;2023-02-26T02:56:03;96893.22;;;6.00;100.00
25084;BME280;13075;55.682;37.564;2023-02-26T02:58:37;96887.66;;;6.30;100.00
25084;BME280;13075;55.682;37.564;2023-02-26T03:01:10;96874.34;;;6.42;100.00
25084;BME280;13075;55.682;37.564;2023-02-26T03:04:02;96885.72;;;6.25;100.00
25084;BME280;13075;55.682;37.564;2023-02-26T03:06:30;96897.41;;;6.24;100.00
25084;BME280;13075;55.682;37.564;2023-02-26T03:08:57;96881.25;;;6.43;100.00
25084;BME280;13075;55.682;37.564;2023-02-26T03:11:24;96876.34;;;6.35;100.00
25084;BME280;13075;55.682;37.564;2023-02-26T03:13:51;96881.38;;;6.48;100.00
25084;BME280;13075;55.682;37.564;2023-02-26T03:16:55;96883.03;;;6.37;100.00
25084;BME280;13075;55.682;37.564;2023-02-26T03:19:40;96877.13;;;6.97;100.00
25084;BME280;13075;55.682;37.564;2023-02-26T03:22:16;96885.00;;;6.75;100.00
25084;BME280;13075;55.682;37.564;2023-02-26T03:24:55;96873.06;;;6.61;100.00
25084;BME280;13075;55.682;37.564;2023-02-26T03:27:44;96872.06;;;6.78;100.00
25084;BME280;13075;55.682;37.564;2023-02-26T03:30:32;96876.56;;;6.78;100.00
25084;BME280;13075;55.682;37.564;2023-02-26T03:35:34;96880.03;;;6.34;100.00
25084;BME280;13075;55.682;37.564;2023-02-26T03:38:07;96880.56;;;6.47;100.00
25084;BME280;13075;55.682;37.564;2023-02-26T03:41:00;96883.31;;;6.85;100.00
25084;BME280;13075;55.682;37.564;2023-02-26T03:46:05;96883.81;;;6.82;100.00
25084;BME280;13075;55.682;37.564;2023-02-26T03:48:34;96888.53;;;6.64;100.00
25084;BME280;13075;55.682;37.564;2023-02-26T03:51:06;96888.00;;;6.34;100.00
25084;BME280;13075;55.682;37.564;2023-02-26T03:54:12;96891.53;;;6.67;100.00
25084;BME280;13075;55.682;37.564;2023-02-26T03:56:44;96899.59;;;6.72;100.00
25084;BME280;13075;55.682;37.564;2023-02-26T03:59:30;96896.63;;;6.85;100.00
25084;BME280;13075;55.682;37.564;2023-02-26T04:02:54;96901.28;;;6.34;100.00
25084;BME280;13075;55.682;37.564;2023-02-26T04:05:26;96909.94;;;6.74;100.00
25084;BME280;13075;55.682;37.564;2023-02-26T04:07:52;96908.03;;;6.69;100.00
25084;BME280;13075;55.682;37.564;2023-02-26T04:10:26;96906.75;;;7.05;100.00
25084;BME280;13075;55.682;37.564;2023-02-26T04:12:58;96908.03;;;7.03;100.00
25084;BME280;13075;55.682;37.564;2023-02-26T04:15:24;96909.81;;;7.14;100.00
25084;BME280;13075;55.682;37.564;2023-02-26T04:17:49;96919.56;;;7.25;100.00
25084;BME280;13075;55.682;37.564;2023-02-26T04:20:15;96928.66;;;7.29;100.00
25084;BME280;13075;55.682;37.564;2023-02-26T04:22:41;96921.81;;;6.83;100.00
25084;BME280;13075;55.682;37.564;2023-02-26T04:25:06;96921.41;;;7.24;100.00
25084;BME280;13075;55.682;37.564;2023-02-26T04:27:32;96931.41;;;7.01;100.00
25084;BME280;13075;55.682;37.564;2023-02-26T04:29:58;96920.69;;;6.51;100.00
25084;BME280;13075;55.682;37.564;2023-02-26T04:32:24;96938.09;;;7.03;100.00
25084;BME280;13075;55.682;37.564;2023-02-26T04:34:49;96939.44;;;7.39;100.00
25084;BME280;13075;55.682;37.564;2023-02-26T04:37:16;96940.75;;;7.03;100.00
25084;BME280;13075;55.682;37.564;2023-02-26T04:39:42;96948.41;;;7.16;100.00
25084;BME280;13075;55.682;37.564;2023-02-26T04:42:09;96947.53;;;7.27;100.00
25084;BME280;13075;55.682;37.564;2023-02-26T04:44:36;96958.94;;;7.11;100.00
25084;BME280;13075;55.682;37.564;2023-02-26T04:47:01;96963.63;;;7.04;100.00
25084;BME280;13075;55.682;37.564;2023-02-26T04:49:27;96966.81;;;6.89;100.00
25084;BME280;13075;55.682;37.564;2023-02-26T04:51:54;96959.28;;;7.15;100.00
25084;BME280;13075;55.682;37.564;2023-02-26T04:54:21;96973.78;;;7.24;100.00
25084;BME280;13075;55.682;37.564;2023-02-26T04:56:46;96965.78;;;6.90;100.00
25084;BME280;13075;55.682;37.564;2023-02-26T04:59:12;96978.19;;;7.18;100.00
25084;BME280;13075;55.682;37.564;2023-02-26T05:01:38;96988.59;;;7.03;100.00
25084;BME280;13075;55.682;37.564;2023-02-26T05:04:06;96983.16;;;6.81;100.00
25084;BME280;13075;55.682;37.564;2023-02-26T05:06:32;96995.78;;;7.52;100.00
25084;BME280;13075;55.682;37.564;2023-02-26T05:08:58;97005.44;;;7.09;100.00
25084;BME280;13075;55.682;37.564;2023-02-26T05:11:24;97008.03;;;7.53;100.00
25084;BME280;13075;55.682;37.564;2023-02-26T05:13:49;97000.88;;;7.37;100.00
25084;BME280;13075;55.682;37.564;2023-02-26T05:16:16;97021.75;;;7.45;100.00
25084;BME280;13075;55.682;37.564;2023-02-26T05:18:41;97030.16;;;7.09;100.00
25084;BME280;13075;55.682;37.564;2023-02-26T05:21:07;97025.47;;;6.71;100.00
25084;BME280;13075;55.682;37.564;2023-02-26T05:23:33;97024.13;;;7.14;100.00
25084;BME280;13075;55.682;37.564;2023-02-26T05:25:59;97039.69;;;7.22;100.00
25084;BME280;13075;55.682;37.564;2023-02-26T05:28:26;97035.94;;;7.06;100.00
25084;BME280;13075;55.682;37.564;2023-02-26T05:30:52;97045.50;;;6.90;100.00
25084;BME280;13075;55.682;37.564;2023-02-26T05:33:18;97051.53;;;6.86;100.00
25084;BME280;13075;55.682;37.564;2023-02-26T05:35:44;97051.38;;;7.37;100.00
25084;BME280;13075;55.682;37.564;2023-02-26T05:38:11;97050.31;;;7.38;100.00
25084;BME280;13075;55.682;37.564;2023-02-26T05:40:36;97057.69;;;7.48;100.00
25084;BME280;13075;55.682;37.564;2023-02-26T05:43:02;97061.47;;;7.07;100.00
25084;BME280;13075;55.682;37.564;2023-02-26T05:45:28;97074.97;;;7.17;100.00
25084;BME280;13075;55.682;37.564;2023-02-26T05:47:53;97092.63;;;6.95;100.00
25084;BME280;13075;55.682;37.564;2023-02-26T05:50:19;97084.13;;;7.10;100.00
25084;BME280;13075;55.682;37.564;2023-02-26T05:52:44;97081.78;;;7.13;100.00
25084;BME280;13075;55.682;37.564;2023-02-26T05:55:10;97097.63;;;7.20;100.00
25084;BME280;13075;55.682;37.564;2023-02-26T05:57:36;97096.81;;;6.91;100.00
25084;BME280;13075;55.682;37.564;2023-02-26T06:00:03;97103.41;;;6.88;100.00
25084;BME280;13075;55.682;37.564;2023-02-26T06:02:38;97087.66;;;7.15;100.00
25084;BME280;13075;55.682;37.564;2023-02-26T06:05:04;97082.00;;;7.57;100.00
25084;BME280;13075;55.682;37.564;2023-02-26T06:07:29;97096.56;;;7.21;100.00
25084;BME280;13075;55.682;37.564;2023-02-26T06:09:55;97108.06;;;7.10;100.00
25084;BME280;13075;55.682;37.564;2023-02-26T06:12:21;97112.00;;;7.35;100.00
25084;BME280;13075;55.682;37.564;2023-02-26T06:14:46;97105.66;;;7.53;100.00
25084;BME280;13075;55.682;37.564;2023-02-26T06:17:12;97121.84;;;7.23;100.00
25084;BME280;13075;55.682;37.564;2023-02-26T06:19:37;97123.59;;;7.18;100.00
25084;BME280;13075;55.682;37.564;2023-02-26T06:22:03;97130.00;;;7.33;100.00
25084;BME280;13075;55.682;37.564;2023-02-26T06:24:29;97115.00;;;7.56;100.00
25084;BME280;13075;55.682;37.564;2023-02-26T06:26:54;97119.03;;;7.75;100.00
25084;BME280;13075;55.682;37.564;2023-02-26T06:29:20;97128.72;;;8.14;100.00
25084;BME280;13075;55.682;37.564;2023-02-26T06:31:46;97130.34;;;8.15;100.00
25084;BME280;13075;55.682;37.564;2023-02-26T06:34:12;97137.03;;;8.34;100.00
25084;BME280;13075;55.682;37.564;2023-02-26T06:36:38;97140.03;;;8.38;100.00
25084;BME280;13075;55.682;37.564;2023-02-26T06:39:04;97141.59;;;8.55;100.00
25084;BME280;13075;55.682;37.564;2023-02-26T06:41:29;97142.75;;;8.09;100.00
25084;BME280;13075;55.682;37.564;2023-02-26T06:43:55;97146.63;;;7.85;100.00
25084;BME280;13075;55.682;37.564;2023-02-26T06:46:21;97147.44;;;7.86;100.00
25084;BME280;13075;55.682;37.564;2023-02-26T06:48:46;97146.16;;;8.05;100.00
25084;BME280;13075;55.682;37.564;2023-02-26T06:51:12;97157.88;;;7.59;100.00
25084;BME280;13075;55.682;37.564;2023-02-26T06:53:37;97165.75;;;7.37;100.00
25084;BME280;13075;55.682;37.564;2023-02-26T06:56:03;97173.19;;;7.52;100.00
25084;BME280;13075;55.682;37.564;2023-02-26T06:58:29;97173.16;;;7.80;100.00
25084;BME280;13075;55.682;37.564;2023-02-26T07:00:54;97165.84;;;8.04;100.00
25084;BME280;13075;55.682;37.564;2023-02-26T07:03:20;97182.78;;;7.53;100.00
25084;BME280;13075;55.682;37.564;2023-02-26T07:05:46;97184.13;;;8.00;100.00
25084;BME280;13075;55.682;37.564;2023-02-26T07:08:12;97200.13;;;7.56;100.00
25084;BME280;13075;55.682;37.564;2023-02-26T07:10:39;97202.38;;;7.92;100.00
25084;BME280;13075;55.682;37.564;2023-02-26T07:13:05;97198.75;;;8.14;100.00
25084;BME280;13075;55.682;37.564;2023-02-26T07:15:31;97202.97;;;8.27;100.00
25084;BME280;13075;55.682;37.564;2023-02-26T07:17:57;97188.19;;;8.53;100.00
25084;BME280;13075;55.682;37.564;2023-02-26T07:20:25;97186.66;;;8.07;100.00
25084;BME280;13075;55.682;37.564;2023-02-26T07:22:51;97195.44;;;8.24;100.00
25084;BME280;13075;55.682;37.564;2023-02-26T07:25:16;97196.91;;;8.48;100.00
25084;BME280;13075;55.682;37.564;2023-02-26T07:27:42;97205.88;;;8.26;100.00
25084;BME280;13075;55.682;37.564;2023-02-26T07:30:08;97196.91;;;8.32;100.00
25084;BME280;13075;55.682;37.564;2023-02-26T07:32:34;97213.84;;;8.26;100.00
25084;BME280;13075;55.682;37.564;2023-02-26T07:35:00;97201.78;;;7.73;100.00
25084;BME280;13075;55.682;37.564;2023-02-26T07:37:26;97214.81;;;8.36;100.00
25084;BME280;13075;55.682;37.564;2023-02-26T07:39:53;97215.97;;;8.40;100.00
25084;BME280;13075;55.682;37.564;2023-02-26T07:42:20;97211.19;;;8.26;100.00
25084;BME280;13075;55.682;37.564;2023-02-26T07:44:45;97211.06;;;8.49;100.00
25084;BME280;13075;55.682;37.564;2023-02-26T07:47:11;97219.75;;;8.61;100.00
25084;BME280;13075;55.682;37.564;2023-02-26T07:49:37;97226.06;;;8.55;100.00
25084;BME280;13075;55.682;37.564;2023-02-26T07:52:03;97219.13;;;8.54;100.00
25084;BME280;13075;55.682;37.564;2023-02-26T07:54:31;97225.09;;;8.61;100.00
25084;BME280;13075;55.682;37.564;2023-02-26T07:56:57;97233.50;;;8.53;100.00
25084;BME280;13075;55.682;37.564;2023-02-26T07:59:22;97229.00;;;8.75;100.00
25084;BME280;13075;55.682;37.564;2023-02-26T08:01:48;97235.59;;;8.51;100.00
25084;BME280;13075;55.682;37.564;2023-02-26T08:04:14;97227.28;;;8.86;100.00
25084;BME280;13075;55.682;37.564;2023-02-26T08:06:39;97244.13;;;8.53;100.00
25084;BME280;13075;55.682;37.564;2023-02-26T08:09:05;97239.88;;;8.35;100.00
25084;BME280;13075;55.682;37.564;2023-02-26T08:11:31;97247.25;;;8.83;100.00
25084;BME280;13075;55.682;37.564;2023-02-26T08:14:04;97241.47;;;9.08;100.00
25084;BME280;13075;55.682;37.564;2023-02-26T08:16:30;97250.44;;;9.18;100.00
25084;BME280;13075;55.682;37.564;2023-02-26T08:18:56;97245.94;;;9.46;100.00
25084;BME280;13075;55.682;37.564;2023-02-26T08:21:22;97249.16;;;9.69;100.00
25084;BME280;13075;55.682;37.564;2023-02-26T08:23:48;97244.41;;;10.25;100.00
25084;BME280;13075;55.682;37.564;2023-02-26T08:26:13;97265.75;;;9.98;100.00
25084;BME280;13075;55.682;37.564;2023-02-26T08:28:39;97252.81;;;9.63;100.00
25084;BME280;13075;55.682;37.564;2023-02-26T08:31:05;97257.41;;;9.03;100.00
25084;BME280;13075;55.682;37.564;2023-02-26T08:33:32;97275.72;;;9.16;100.00
25084;BME280;13075;55.682;37.564;2023-02-26T08:35:58;97287.44;;;8.43;100.00
25084;BME280;13075;55.682;37.564;2023-02-26T08:38:27;97300.00;;;8.48;100.00
25084;BME280;13075;55.682;37.564;2023-02-26T08:40:53;97293.16;;;9.23;100.00
25084;BME280;13075;55.682;37.564;2023-02-26T08:43:19;97284.28;;;9.39;100.00
25084;BME280;13075;55.682;37.564;2023-02-26T08:45:45;97295.25;;;9.21;100.00
25084;BME280;13075;55.682;37.564;2023-02-26T08:48:11;97307.25;;;10.06;98.34
25084;BME280;13075;55.682;37.564;2023-02-26T08:50:37;97305.28;;;9.14;98.30
25084;BME280;13075;55.682;37.564;2023-02-26T08:53:05;97312.16;;;10.40;89.05
25084;BME280;13075;55.682;37.564;2023-02-26T08:55:31;97311.34;;;9.91;90.76
25084;BME280;13075;55.682;37.564;2023-02-26T08:57:56;97319.44;;;9.75;94.08
25084;BME280;13075;55.682;37.564;2023-02-26T09:00:22;97328.31;;;9.80;100.00
25084;BME280;13075;55.682;37.564;2023-02-26T09:02:48;97325.69;;;8.70;100.00
25084;BME280;13075;55.682;37.564;2023-02-26T09:05:14;97346.44;;;8.52;100.00
25084;BME280;13075;55.682;37.564;2023-02-26T09:07:40;97338.84;;;8.44;100.00
25084;BME280;13075;55.682;37.564;2023-02-26T09:10:07;97348.69;;;8.60;100.00
25084;BME280;13075;55.682;37.564;2023-02-26T09:12:33;97360.91;;;8.56;100.00
25084;BME280;13075;55.682;37.564;2023-02-26T09:15:02;97360.69;;;8.29;100.00
25084;BME280;13075;55.682;37.564;2023-02-26T09:17:29;97363.28;;;8.12;100.00
25084;BME280;13075;55.682;37.564;2023-02-26T09:19:55;97366.63;;;8.08;100.00
25084;BME280;13075;55.682;37.564;2023-02-26T09:22:20;97366.91;;;7.95;100.00
25084;BME280;13075;55.682;37.564;2023-02-26T09:24:46;97370.38;;;7.95;100.00
25084;BME280;13075;55.682;37.564;2023-02-26T09:27:12;97370.81;;;7.76;100.00
25084;BME280;13075;55.682;37.564;2023-02-26T09:29:37;97380.63;;;7.75;100.00
25084;BME280;13075;55.682;37.564;2023-02-26T09:32:03;97370.72;;;7.59;100.00
25084;BME280;13075;55.682;37.564;2023-02-26T09:34:34;97381.25;;;7.66;100.00
25084;BME280;13075;55.682;37.564;2023-02-26T09:36:59;97391.47;;;7.97;100.00
25084;BME280;13075;55.682;37.564;2023-02-26T09:39:25;97377.19;;;8.03;100.00
25084;BME280;13075;55.682;37.564;2023-02-26T09:41:53;97396.03;;;7.73;100.00
25084;BME280;13075;55.682;37.564;2023-02-26T09:44:25;97392.09;;;8.27;100.00
25084;BME280;13075;55.682;37.564;2023-02-26T09:47:12;97388.03;;;8.53;100.00
25084;BME280;13075;55.682;37.564;2023-02-26T09:52:26;97395.44;;;8.23;100.00
25084;BME280;13075;55.682;37.564;2023-02-26T09:54:59;97395.66;;;7.81;100.00
25084;BME280;13075;55.682;37.564;2023-02-26T09:57:39;97401.25;;;7.68;100.00
25084;BME280;13075;55.682;37.564;2023-02-26T10:02:57;97411.59;;;8.04;100.00
25084;BME280;13075;55.682;37.564;2023-02-26T10:07:59;97422.16;;;7.88;100.00
25084;BME280;13075;55.682;37.564;2023-02-26T10:13:39;97420.50;;;8.10;100.00
25084;BME280;13075;55.682;37.564;2023-02-26T10:16:11;97426.47;;;8.29;100.00
25084;BME280;13075;55.682;37.564;2023-02-26T10:19:01;97425.50;;;8.46;100.00
25084;BME280;13075;55.682;37.564;2023-02-26T10:24:18;97444.06;;;8.30;100.00
25084;BME280;13075;55.682;37.564;2023-02-26T10:26:55;97448.03;;;8.04;100.00
25084;BME280;13075;55.682;37.564;2023-02-26T10:29:27;97447.06;;;7.82;100.00
25084;BME280;13075;55.682;37.564;2023-02-26T10:32:14;97442.19;;;7.79;100.00
25084;BME280;13075;55.682;37.564;2023-02-26T10:34:56;97456.69;;;8.23;100.00
25084;BME280;13075;55.682;37.564;2023-02-26T10:37:53;97451.97;;;8.53;97.94
25084;BME280;13075;55.682;37.564;2023-02-26T10:41:01;97433.63;;;8.85;95.44
25084;BME280;13075;55.682;37.564;2023-02-26T10:43:36;97447.91;;;9.23;89.39
25084;BME280;13075;55.682;37.564;2023-02-26T10:46:32;97451.53;;;8.44;88.70
25084;BME280;13075;55.682;37.564;2023-02-26T10:49:19;97453.94;;;9.35;87.34
25084;BME280;13075;55.682;37.564;2023-02-26T10:51:48;97447.88;;;9.40;86.21
25084;BME280;13075;55.682;37.564;2023-02-26T10:54:27;97446.28;;;9.39;81.13
25084;BME280;13075;55.682;37.564;2023-02-26T10:56:54;97445.63;;;9.15;81.54
25084;BME280;13075;55.682;37.564;2023-02-26T10:59:20;97461.81;;;8.81;86.19
25084;BME280;13075;55.682;37.564;2023-02-26T11:01:46;97447.66;;;8.35;88.88
25084;BME280;13075;55.682;37.564;2023-02-26T11:04:18;97462.09;;;8.67;88.67
25084;BME280;13075;55.682;37.564;2023-02-26T11:06:54;97463.16;;;8.66;86.01
25084;BME280;13075;55.682;37.564;2023-02-26T11:09:36;97462.19;;;8.44;82.95
25084;BME280;13075;55.682;37.564;2023-02-26T11:12:12;97463.38;;;8.93;84.33
25084;BME280;13075;55.682;37.564;2023-02-26T11:14:39;97464.91;;;8.33;91.12
25084;BME280;13075;55.682;37.564;2023-02-26T11:17:11;97470.59;;;9.09;82.09
25084;BME280;13075;55.682;37.564;2023-02-26T11:19:41;97470.41;;;8.99;81.36
25084;BME280;13075;55.682;37.564;2023-02-26T11:22:13;97474.84;;;8.94;83.83
25084;BME280;13075;55.682;37.564;2023-02-26T11:24:42;97478.13;;;9.29;80.93
25084;BME280;13075;55.682;37.564;2023-02-26T11:27:14;97472.09;;;8.89;84.26
25084;BME280;13075;55.682;37.564;2023-02-26T11:29:42;97486.50;;;9.04;84.37
25084;BME280;13075;55.682;37.564;2023-02-26T11:32:16;97471.47;;;8.42;89.17
25084;BME280;13075;55.682;37.564;2023-02-26T11:34:47;97485.31;;;8.67;88.23
25084;BME280;13075;55.682;37.564;2023-02-26T11:37:18;97486.78;;;8.91;89.73
25084;BME280;13075;55.682;37.564;2023-02-26T11:39:45;97479.91;;;8.50;89.70
25084;BME280;13075;55.682;37.564;2023-02-26T11:42:12;97486.06;;;8.96;87.85
25084;BME280;13075;55.682;37.564;2023-02-26T11:44:41;97470.97;;;8.85;87.85
25084;BME280;13075;55.682;37.564;2023-02-26T11:47:16;97476.69;;;8.37;89.68
25084;BME280;13075;55.682;37.564;2023-02-26T11:49:49;97484.31;;;8.45;90.19
25084;BME280;13075;55.682;37.564;2023-02-26T11:52:20;97472.56;;;8.86;88.73
25084;BME280;13075;55.682;37.564;2023-02-26T11:54:49;97482.03;;;8.65;88.29
25084;BME280;13075;55.682;37.564;2023-02-26T11:57:22;97483.13;;;8.81;87.67
25084;BME280;13075;55.682;37.564;2023-02-26T11:59:51;97478.03;;;9.07;86.35
25084;BME280;13075;55.682;37.564;2023-02-26T12:02:22;97479.97;;;9.28;80.95
25084;BME280;13075;55.682;37.564;2023-02-26T12:04:51;97475.53;;;9.17;84.68
25084;BME280;13075;55.682;37.564;2023-02-26T12:07:18;97479.34;;;9.38;86.91
25084;BME280;13075;55.682;37.564;2023-02-26T12:09:45;97485.16;;;9.18;83.66
25084;BME280;13075;55.682;37.564;2023-02-26T12:26:24;97536.97;;;7.15;100.00
25084;BME280;13075;55.682;37.564;2023-02-26T12:35:24;97556.63;;;7.79;100.00
25084;BME280;13075;55.682;37.564;2023-02-26T12:48:57;97561.88;;;6.91;100.00
25084;BME280;13075;55.682;37.564;2023-02-26T13:08:45;97588.97;;;6.81;100.00
25084;BME280;13075;55.682;37.564;2023-02-26T13:19:17;97601.19;;;6.71;100.00
25084;BME280;13075;55.682;37.564;2023-02-26T13:21:58;97615.88;;;6.55;100.00
25084;BME280;13075;55.682;37.564;2023-02-26T13:24:42;97619.59;;;6.66;100.00
25084;BME280;13075;55.682;37.564;2023-02-26T13:27:10;97629.78;;;6.69;100.00
25084;BME280;13075;55.682;37.564;2023-02-26T13:30:00;97627.66;;;6.77;100.00
25084;BME280;13075;55.682;37.564;2023-02-26T13:32:29;97632.59;;;6.56;100.00
25084;BME280;13075;55.682;37.564;2023-02-26T13:35:03;97635.06;;;6.14;100.00
25084;BME280;13075;55.682;37.564;2023-02-26T13:37:46;97645.94;;;6.31;100.00
25084;BME280;13075;55.682;37.564;2023-02-26T13:43:21;97653.97;;;6.00;100.00
25084;BME280;13075;55.682;37.564;2023-02-26T13:51:31;97654.72;;;5.51;100.00
25084;BME280;13075;55.682;37.564;2023-02-26T13:54:01;97664.66;;;5.93;100.00
25084;BME280;13075;55.682;37.564;2023-02-26T14:06:44;97704.63;;;5.98;100.00
25084;BME280;13075;55.682;37.564;2023-02-26T14:27:34;97738.44;;;5.72;87.31
25084;BME280;13075;55.682;37.564;2023-02-26T14:33:06;97736.94;;;5.89;83.83
25084;BME280;13075;55.682;37.564;2023-02-26T14:35:44;97737.25;;;5.68;85.96
25084;BME280;13075;55.682;37.564;2023-02-26T14:38:19;97744.31;;;5.80;84.72
25084;BME280;13075;55.682;37.564;2023-02-26T14:40:49;97742.50;;;5.81;84.14
25084;BME280;13075;55.682;37.564;2023-02-26T14:46:04;97760.25;;;5.36;82.71
25084;BME280;13075;55.682;37.564;2023-02-26T14:48:31;97741.41;;;5.06;83.63
25084;BME280;13075;55.682;37.564;2023-02-26T14:56:26;97770.63;;;5.82;78.90
25084;BME280;13075;55.682;37.564;2023-02-26T15:15:12;97812.19;;;4.73;100.00
25084;BME280;13075;55.682;37.564;2023-02-26T15:18:06;97819.72;;;4.89;100.00
25084;BME280;13075;55.682;37.564;2023-02-26T15:25:58;97829.41;;;5.28;100.00
25084;BME280;13075;55.682;37.564;2023-02-26T15:28:34;97837.47;;;4.82;100.00
25084;BME280;13075;55.682;37.564;2023-02-26T15:31:02;97841.72;;;5.02;100.00
25084;BME280;13075;55.682;37.564;2023-02-26T15:33:29;97846.00;;;4.97;100.00
25084;BME280;13075;55.682;37.564;2023-02-26T15:35:56;97852.47;;;5.14;100.00
25084;BME280;13075;55.682;37.564;2023-02-26T15:38:22;97860.91;;;4.72;100.00
25084;BME280;13075;55.682;37.564;2023-02-26T15:40:50;97867.41;;;4.89;100.00
25084;BME280;13075;55.682;37.564;2023-02-26T15:43:21;97876.94;;;4.44;100.00
25084;BME280;13075;55.682;37.564;2023-02-26T15:45:51;97874.31;;;4.70;100.00
25084;BME280;13075;55.682;37.564;2023-02-26T15:48:21;97876.59;;;4.80;100.00
25084;BME280;13075;55.682;37.564;2023-02-26T15:50:58;97881.66;;;5.08;100.00
25084;BME280;13075;55.682;37.564;2023-02-26T15:55:55;97883.91;;;4.91;100.00
25084;BME280;13075;55.682;37.564;2023-02-26T15:58:32;97891.25;;;4.69;100.00
25084;BME280;13075;55.682;37.564;2023-02-26T16:01:00;97895.53;;;4.96;100.00
25084;BME280;13075;55.682;37.564;2023-02-26T16:03:30;97894.50;;;4.71;100.00
25084;BME280;13075;55.682;37.564;2023-02-26T16:05:57;97891.22;;;4.63;100.00
25084;BME280;13075;55.682;37.564;2023-02-26T16:08:24;97889.41;;;4.76;100.00
25084;BME280;13075;55.682;37.564;2023-02-26T16:10:51;97899.59;;;5.12;100.00